createdAt,value
2019-04-27T02:32:24.761Z,60.08
2019-04-27T02:34:46.953Z,59.94
2019-04-27T02:36:50.254Z,60.12
2019-04-27T02:38:50.262Z,60.15
2019-04-27T02:40:51.898Z,60.41
2019-04-27T02:42:54.549Z,60.40
2019-04-27T02:44:55.148Z,60.72
2019-04-27T02:46:56.753Z,61.06
2019-04-27T02:49:03.686Z,60.88
2019-04-27T02:51:00.048Z,60.81
2019-04-27T02:53:03.175Z,60.84
2019-04-27T02:55:03.275Z,60.76
2019-04-27T02:57:04.883Z,61.00
2019-04-27T02:59:11.503Z,61.02
2019-04-27T03:01:09.968Z,61.14
2019-04-27T03:03:10.340Z,61.37
2019-04-27T03:05:13.083Z,61.49
2019-04-27T03:07:13.318Z,61.55
2019-04-27T03:09:14.929Z,61.59
2019-04-27T03:11:16.520Z,61.44
2019-04-27T03:13:20.077Z,61.47
2019-04-27T03:15:25.904Z,61.40
2019-04-27T03:17:30.761Z,61.17
2019-04-27T03:19:34.956Z,59.46
2019-04-27T03:21:42.309Z,59.09
2019-04-27T03:23:43.897Z,59.00
2019-04-27T03:26:02.320Z,59.14
2019-04-27T03:28:06.448Z,59.66
2019-04-27T03:30:11.802Z,59.86
2019-04-27T03:32:12.681Z,59.74
2019-04-27T03:34:16.422Z,59.96
2019-04-27T03:36:13.426Z,60.00
2019-04-27T03:38:14.830Z,60.25
2019-04-27T03:40:16.426Z,60.34
2019-04-27T03:42:20.499Z,60.20
2019-04-27T03:44:19.719Z,60.24
2019-04-27T03:46:21.344Z,60.36
2019-04-27T03:48:23.135Z,60.28
2019-04-27T03:50:25.229Z,60.47
2019-04-27T03:52:30.671Z,60.61
2019-04-27T03:54:33.221Z,60.50
2019-04-27T03:56:34.816Z,60.65
2019-04-27T03:58:36.424Z,60.48
2019-04-27T04:00:39.887Z,60.64
2019-04-27T04:02:40.530Z,60.39
2019-04-27T04:04:41.405Z,60.52
2019-04-27T04:06:42.997Z,60.38
2019-04-27T04:08:44.588Z,60.41
2019-04-27T04:11:05.945Z,60.51
2019-04-27T04:13:10.742Z,60.55
2019-04-27T04:15:10.230Z,60.77
2019-04-27T04:17:12.680Z,60.85
2019-04-27T04:19:13.373Z,60.57
2019-04-27T04:21:14.961Z,60.88
2019-04-27T04:23:16.567Z,60.45
2019-04-27T04:25:20.022Z,60.43
2019-04-27T04:27:20.142Z,60.53
2019-04-27T04:29:21.422Z,60.04
2019-04-27T04:31:23.037Z,60.35
2019-04-27T04:33:24.643Z,60.32
2019-04-27T04:35:26.233Z,60.32
2019-04-27T04:37:29.640Z,60.47
2019-04-27T04:39:29.781Z,60.37
2019-04-27T04:41:43.695Z,60.27
2019-04-27T04:43:42.672Z,60.28
2019-04-27T04:45:49.755Z,59.99
2019-04-27T04:47:50.645Z,60.08
2019-04-27T04:50:07.483Z,59.94
2019-04-27T04:51:53.860Z,60.02
2019-04-27T04:53:55.466Z,60.12
2019-04-27T04:55:57.085Z,60.27
2019-04-27T04:57:59.131Z,60.32
2019-04-27T05:00:00.369Z,60.36
2019-04-27T05:02:02.485Z,60.21
2019-04-27T05:04:03.611Z,60.10
2019-04-27T05:06:05.251Z,59.92
2019-04-27T05:08:06.871Z,60.00
2019-04-27T05:10:09.046Z,60.24
2019-04-27T05:12:10.137Z,60.45
2019-04-27T05:14:11.728Z,60.90
2019-04-27T05:16:13.298Z,60.77
2019-04-27T05:18:14.902Z,60.82
2019-04-27T05:20:26.016Z,60.89
2019-04-27T05:22:23.878Z,60.76
2019-04-27T05:24:25.488Z,60.89
2019-04-27T05:26:27.079Z,60.79
2019-04-27T05:28:29.905Z,60.72
2019-04-27T05:30:30.318Z,60.80
2019-04-27T05:32:31.924Z,60.87
2019-04-27T05:34:33.579Z,60.89
2019-04-27T05:36:35.156Z,60.95
2019-04-27T05:38:39.907Z,61.10
2019-04-27T05:40:39.922Z,61.14
2019-04-27T05:42:40.105Z,61.13
2019-04-27T05:44:45.713Z,61.03
2019-04-27T05:46:44.218Z,60.67
2019-04-27T05:48:45.832Z,61.09
2019-04-27T05:50:51.453Z,60.67
2019-04-27T05:52:49.653Z,60.73
2019-04-27T05:54:50.815Z,60.78
2019-04-27T05:56:52.404Z,60.56
2019-04-27T05:58:54.008Z,60.62
2019-04-27T06:00:55.632Z,60.82
2019-04-27T06:02:58.924Z,60.72
2019-04-27T06:05:00.004Z,61.00
2019-04-27T06:07:01.042Z,60.90
2019-04-27T06:09:02.224Z,60.91
2019-04-27T06:11:03.872Z,61.03
2019-04-27T06:13:05.460Z,60.95
2019-04-27T06:15:07.045Z,61.24
2019-04-27T06:17:09.456Z,61.00
2019-04-27T06:19:10.337Z,60.88
2019-04-27T06:21:11.951Z,61.48
2019-04-27T06:23:13.536Z,61.67
2019-04-27T06:25:15.122Z,61.70
2019-04-27T06:27:18.544Z,61.84
2019-04-27T06:29:19.520Z,61.82
2019-04-27T06:31:20.128Z,61.72
2019-04-27T06:33:29.521Z,61.57
2019-04-27T06:35:23.355Z,61.32
2019-04-27T06:37:24.964Z,61.58
2019-04-27T06:39:26.574Z,61.60
2019-04-27T06:41:29.468Z,61.61
2019-04-27T06:43:29.836Z,61.21
2019-04-27T06:45:31.420Z,61.43
2019-04-27T06:47:33.024Z,61.50
2019-04-27T06:49:34.626Z,61.20
2019-04-27T06:51:36.248Z,61.09
2019-04-27T06:53:39.471Z,61.48
2019-04-27T06:55:39.466Z,61.38
2019-04-27T06:57:41.277Z,61.28
2019-04-27T06:59:42.716Z,61.29
2019-04-27T07:01:44.336Z,60.95
2019-04-27T07:03:45.920Z,61.03
2019-04-27T07:05:48.688Z,60.75
2019-04-27T07:07:49.203Z,60.75
2019-04-27T07:09:50.814Z,60.83
2019-04-27T07:11:52.464Z,60.96
2019-04-27T07:13:54.077Z,61.37
2019-04-27T07:15:55.668Z,61.36
2019-04-27T07:17:58.615Z,60.86
2019-04-27T07:19:59.486Z,60.89
2019-04-27T07:22:00.623Z,60.17
2019-04-27T07:24:02.227Z,59.34
2019-04-27T07:26:03.816Z,59.49
2019-04-27T07:28:05.414Z,59.31
2019-04-27T07:30:11.445Z,59.21
2019-04-27T07:32:09.287Z,59.21
2019-04-27T07:36:18.867Z,59.23
2019-04-27T07:38:20.052Z,59.24
2019-04-27T07:40:21.636Z,59.19
2019-04-27T07:42:23.759Z,59.20
2019-04-27T07:44:39.099Z,59.23
2019-04-27T07:46:40.264Z,59.16
2019-04-27T07:48:41.868Z,59.21
2019-04-27T07:50:43.462Z,59.19
2019-04-27T07:52:45.038Z,59.22
2019-04-27T07:54:46.658Z,59.16
2019-04-27T07:56:48.857Z,59.08
2019-04-27T07:58:49.937Z,59.13
2019-04-27T08:00:51.536Z,59.05
2019-04-27T08:02:53.118Z,58.99
2019-04-27T08:04:54.728Z,58.95
2019-04-27T08:06:56.396Z,58.92
2019-04-27T08:08:59.350Z,58.90
2019-04-27T08:10:59.613Z,58.85
2019-04-27T08:13:01.267Z,58.82
2019-04-27T08:15:02.856Z,58.83
2019-04-27T08:17:04.475Z,58.78
2019-04-27T08:19:06.063Z,58.78
2019-04-27T08:21:08.945Z,58.75
2019-04-27T08:23:09.690Z,57.70
2019-04-27T08:25:10.948Z,53.03
2019-04-27T08:27:29.324Z,52.57
2019-04-27T08:29:33.200Z,52.44
2019-04-27T08:31:35.296Z,53.86
2019-04-27T08:33:36.888Z,54.32
2019-04-27T08:35:38.928Z,53.63
2019-04-27T08:37:40.110Z,53.23
2019-04-27T08:39:41.735Z,52.98
2019-04-27T08:41:43.321Z,52.95
2019-04-27T08:43:44.947Z,53.03
2019-04-27T08:45:46.532Z,53.08
2019-04-27T08:47:49.778Z,53.27
2019-04-27T08:49:49.832Z,53.41
2019-04-27T08:51:58.868Z,53.50
2019-04-27T08:53:53.058Z,53.62
2019-04-27T08:55:54.650Z,53.72
2019-04-27T08:57:56.291Z,53.89
2019-04-27T08:59:59.676Z,53.98
2019-04-27T09:01:59.512Z,54.00
2019-04-27T09:04:01.135Z,54.02
2019-04-27T09:06:02.740Z,54.13
2019-04-27T09:08:10.160Z,54.22
2019-04-27T09:10:23.556Z,54.39
2019-04-27T09:12:30.844Z,54.51
2019-04-27T09:14:32.428Z,54.67
2019-04-27T09:16:34.887Z,54.78
2019-04-27T09:18:36.476Z,54.87
2019-04-27T09:20:38.993Z,54.90
2019-04-27T09:22:40.334Z,54.97
2019-04-27T09:24:41.910Z,54.96
2019-04-27T09:26:43.495Z,55.03
2019-04-27T09:28:45.094Z,55.01
2019-04-27T09:30:46.719Z,55.00
2019-04-27T09:32:48.352Z,55.04
2019-04-27T09:34:50.671Z,55.10
2019-04-27T09:36:53.538Z,55.13
2019-04-27T09:38:56.511Z,55.25
2019-04-27T09:40:58.090Z,55.30
2019-04-27T09:42:58.499Z,55.40
2019-04-27T09:45:00.121Z,55.35
2019-04-27T09:47:01.704Z,55.42
2019-04-27T09:49:03.288Z,55.54
2019-04-27T09:51:06.463Z,55.61
2019-04-27T09:53:06.563Z,55.70
2019-04-27T09:55:08.493Z,55.70
2019-04-27T09:57:09.819Z,55.62
2019-04-27T09:59:11.404Z,55.76
2019-04-27T10:01:15.758Z,55.75
2019-04-27T10:03:14.692Z,55.71
2019-04-27T10:05:17.162Z,55.60
2019-04-27T10:07:17.960Z,55.50
2019-04-27T10:09:19.650Z,55.42
2019-04-27T10:11:21.273Z,55.29
2019-04-27T10:13:22.846Z,55.24
2019-04-27T10:15:24.422Z,55.22
2019-04-27T10:17:26.010Z,55.22
2019-04-27T10:19:31.119Z,55.22
2019-04-27T10:21:29.302Z,55.23
2019-04-27T10:23:30.898Z,55.30
2019-04-27T10:25:32.511Z,55.32
2019-04-27T10:27:35.837Z,55.36
2019-04-27T10:29:35.789Z,55.33
2019-04-27T10:31:37.436Z,55.31
2019-04-27T10:33:39.062Z,55.32
2019-04-27T10:35:40.662Z,55.32
2019-04-27T10:37:42.263Z,55.33
2019-04-27T10:39:43.852Z,55.30
2019-04-27T10:41:46.335Z,55.34
2019-04-27T10:43:47.103Z,55.56
2019-04-27T10:45:48.712Z,55.83
2019-04-27T10:47:50.300Z,55.40
2019-04-27T10:49:51.866Z,55.32
2019-04-27T10:51:53.448Z,55.34
2019-04-27T10:53:55.793Z,55.73
2019-04-27T10:55:56.732Z,55.74
2019-04-27T10:57:58.322Z,55.67
2019-04-27T10:59:59.931Z,55.73
2019-04-27T11:02:01.633Z,55.75
2019-04-27T11:04:18.095Z,55.74
2019-04-27T11:06:36.427Z,55.75
2019-04-27T11:08:38.014Z,55.67
2019-04-27T11:10:39.602Z,55.69
2019-04-27T11:12:41.189Z,55.76
2019-04-27T11:14:42.793Z,55.87
2019-04-27T11:16:45.950Z,55.94
2019-04-27T11:18:47.100Z,55.90
2019-04-27T11:20:47.774Z,55.92
2019-04-27T11:22:49.420Z,55.94
2019-04-27T11:24:51.013Z,55.99
2019-04-27T11:26:52.610Z,55.98
2019-04-27T11:28:54.260Z,55.78
2019-04-27T11:30:55.872Z,55.74
2019-04-27T11:32:59.327Z,55.75
2019-04-27T11:35:00.680Z,55.73
2019-04-27T11:37:02.283Z,55.78
2019-04-27T11:39:03.914Z,55.85
2019-04-27T11:41:07.504Z,55.84
2019-04-27T11:43:07.388Z,55.89
2019-04-27T11:45:09.156Z,56.04
2019-04-27T11:47:10.748Z,56.19
2019-04-27T11:49:12.322Z,56.28
2019-04-27T11:51:17.085Z,56.31
2019-04-27T11:53:22.855Z,56.35
2019-04-27T11:55:17.180Z,56.29
2019-04-27T11:57:18.788Z,56.14
2019-04-27T11:59:20.385Z,55.97
2019-04-27T12:01:21.972Z,55.89
2019-04-27T12:03:23.542Z,55.89
2019-04-27T12:05:26.070Z,55.97
2019-04-27T12:07:26.851Z,56.04
2019-04-27T12:09:28.485Z,56.14
2019-04-27T12:11:30.097Z,56.11
2019-04-27T12:13:31.685Z,56.03
2019-04-27T12:15:33.323Z,55.98
2019-04-27T12:17:35.882Z,55.92
2019-04-27T12:19:36.632Z,55.88
2019-04-27T12:21:38.220Z,55.82
2019-04-27T12:23:41.399Z,55.80
2019-04-27T12:25:41.503Z,55.69
2019-04-27T12:27:45.842Z,55.80
2019-04-27T12:29:51.859Z,55.85
2019-04-27T12:31:53.477Z,55.79
2019-04-27T12:33:56.015Z,55.47
2019-04-27T12:35:56.999Z,55.40
2019-04-27T12:37:58.454Z,55.60
2019-04-27T12:40:00.102Z,55.74
2019-04-27T12:42:01.699Z,55.93
2019-04-27T12:44:03.304Z,56.13
2019-04-27T12:46:05.916Z,56.31
2019-04-27T12:48:06.598Z,56.51
2019-04-27T12:50:08.268Z,56.76
2019-04-27T12:52:09.860Z,56.86
2019-04-27T12:54:24.215Z,56.91
2019-04-27T12:56:40.749Z,56.90
2019-04-27T12:58:43.956Z,57.06
2019-04-27T13:00:57.653Z,57.46
2019-04-27T13:02:59.241Z,57.50
2019-04-27T13:05:00.855Z,57.58
2019-04-27T13:07:02.440Z,57.68
2019-04-27T13:09:04.028Z,57.76
2019-04-27T13:11:06.046Z,57.88
2019-04-27T13:13:07.361Z,58.04
2019-04-27T13:15:08.954Z,58.08
2019-04-27T13:17:10.535Z,58.14
2019-04-27T13:19:12.136Z,57.92
2019-04-27T13:21:13.784Z,57.96
2019-04-27T13:23:15.395Z,57.88
2019-04-27T13:25:16.984Z,58.00
2019-04-27T13:27:18.572Z,58.15
2019-04-27T13:29:20.188Z,58.34
2019-04-27T13:31:21.849Z,58.42
2019-04-27T13:33:23.464Z,58.47
2019-04-27T13:35:25.850Z,58.52
2019-04-27T13:37:30.552Z,58.52
2019-04-27T13:39:32.140Z,58.70
2019-04-27T13:41:33.744Z,58.73
2019-04-27T13:43:35.372Z,58.66
2019-04-27T13:45:46.858Z,58.77
2019-04-27T13:48:04.061Z,58.90
2019-04-27T13:50:09.458Z,59.03
2019-04-27T13:52:11.061Z,59.16
2019-04-27T13:54:21.453Z,59.29
2019-04-27T13:56:17.123Z,59.33
2019-04-27T13:58:16.857Z,59.31
2019-04-27T14:00:18.427Z,59.39
2019-04-27T14:02:23.477Z,59.53
2019-04-27T14:04:21.699Z,59.78
2019-04-27T14:06:23.288Z,59.71
2019-04-27T14:08:24.876Z,59.90
2019-04-27T14:10:28.608Z,60.20
2019-04-27T14:12:28.526Z,60.38
2019-04-27T14:14:29.811Z,60.38
2019-04-27T14:16:31.416Z,60.62
2019-04-27T14:18:33.004Z,60.39
2019-04-27T14:20:34.612Z,58.77
2019-04-27T14:22:36.251Z,58.20
2019-04-27T14:24:40.270Z,57.51
2019-04-27T14:26:41.929Z,56.22
2019-04-27T14:28:43.535Z,56.66
2019-04-27T14:30:45.150Z,56.87
2019-04-27T14:32:46.773Z,55.65
2019-04-27T14:34:50.274Z,56.62
2019-04-27T14:36:50.016Z,57.23
2019-04-27T14:38:51.604Z,56.44
2019-04-27T14:40:53.188Z,55.49
2019-04-27T14:42:54.818Z,54.92
2019-04-27T14:44:56.407Z,55.65
2019-04-27T14:46:58.321Z,55.42
2019-04-27T14:48:59.628Z,54.88
2019-04-27T14:51:01.216Z,54.75
2019-04-27T14:53:02.855Z,55.02
2019-04-27T14:55:04.487Z,54.59
2019-04-27T14:57:06.072Z,55.00
2019-04-27T14:59:07.683Z,54.31
2019-04-27T15:01:09.271Z,54.59
2019-04-27T15:03:10.881Z,55.24
2019-04-27T15:05:12.525Z,55.74
2019-04-27T15:07:14.103Z,55.98
2019-04-27T15:09:18.059Z,56.00
2019-04-27T15:11:19.260Z,55.68
2019-04-27T15:13:19.013Z,55.83
2019-04-27T15:15:21.443Z,55.38
2019-04-27T15:17:25.552Z,55.91
2019-04-27T15:19:26.608Z,55.40
2019-04-27T15:21:28.469Z,56.03
2019-04-27T15:23:30.826Z,55.36
2019-04-27T15:25:35.031Z,55.24
2019-04-27T15:27:37.401Z,55.42
2019-04-27T15:29:35.085Z,55.30
2019-04-27T15:31:36.675Z,54.87
2019-04-27T15:33:46.791Z,52.15
2019-04-27T15:35:45.743Z,52.96
2019-04-27T15:37:50.640Z,51.87
2019-04-27T15:40:10.016Z,51.99
2019-04-27T15:42:09.807Z,53.80
2019-04-27T15:44:11.158Z,53.31
2019-04-27T15:46:12.747Z,54.23
2019-04-27T15:48:14.334Z,54.81
2019-04-27T15:50:15.953Z,54.35
2019-04-27T15:52:17.939Z,52.61
2019-04-27T15:54:22.427Z,54.49
2019-04-27T15:56:21.821Z,54.78
2019-04-27T15:58:25.065Z,54.98
2019-04-27T16:00:24.450Z,55.12
2019-04-27T16:02:26.026Z,54.96
2019-04-27T16:04:27.623Z,52.75
2019-04-27T16:06:29.263Z,54.16
2019-04-27T16:08:30.876Z,54.45
2019-04-27T16:10:36.508Z,55.04
2019-04-27T16:12:38.195Z,53.54
2019-04-27T16:14:36.393Z,53.58
2019-04-27T16:16:38.231Z,53.70
2019-04-27T16:18:39.179Z,52.71
2019-04-27T16:20:40.784Z,53.27
2019-04-27T16:22:42.414Z,53.38
2019-04-27T16:24:43.999Z,53.75
2019-04-27T16:26:46.520Z,53.38
2019-04-27T16:28:52.854Z,53.99
2019-04-27T16:30:50.605Z,53.41
2019-04-27T16:32:50.640Z,53.67
2019-04-27T16:34:52.231Z,53.26
2019-04-27T16:36:53.819Z,53.11
2019-04-27T16:38:55.423Z,53.28
2019-04-27T16:40:59.676Z,54.15
2019-04-27T16:42:58.756Z,54.21
2019-04-27T16:45:00.348Z,54.37
2019-04-27T16:47:02.007Z,54.90
2019-04-27T16:49:07.334Z,54.53
2019-04-27T16:51:05.281Z,54.66
2019-04-27T16:53:08.743Z,55.13
2019-04-27T16:55:08.759Z,55.03
2019-04-27T16:57:10.449Z,54.74
2019-04-27T16:59:36.636Z,54.99
2019-04-27T17:01:18.253Z,54.99
2019-04-27T17:03:18.279Z,54.99
2019-04-27T17:05:19.929Z,54.36
2019-04-27T17:07:21.574Z,54.80
2019-04-27T17:09:23.622Z,54.11
2019-04-27T17:11:25.346Z,54.48
2019-04-27T17:13:28.039Z,54.97
2019-04-27T17:15:34.529Z,54.75
2019-04-27T17:17:38.668Z,54.87
2019-04-27T17:19:43.894Z,55.32
2019-04-27T17:21:43.378Z,55.32
2019-04-27T17:23:44.996Z,55.25
2019-04-27T17:25:48.084Z,54.88
2019-04-27T17:27:49.911Z,54.82
2019-04-27T17:29:58.458Z,55.11
2019-04-27T17:31:55.200Z,55.06
2019-04-27T17:33:55.874Z,55.18
2019-04-27T17:35:57.646Z,54.86
2019-04-27T17:37:59.608Z,54.54
2019-04-27T17:40:00.980Z,54.46
2019-04-27T17:42:02.578Z,54.89
2019-04-27T17:44:04.181Z,54.52
2019-04-27T17:46:07.385Z,54.81
2019-04-27T17:48:10.808Z,55.01
2019-04-27T17:50:09.436Z,54.13
2019-04-27T17:52:13.113Z,54.93
2019-04-27T17:54:12.693Z,55.10
2019-04-27T17:56:14.297Z,55.10
2019-04-27T17:58:17.987Z,54.34
2019-04-27T18:00:18.871Z,54.77
2019-04-27T18:02:19.316Z,55.04
2019-04-27T18:04:20.927Z,54.22
2019-04-27T18:06:24.472Z,55.06
2019-04-27T18:08:25.264Z,54.89
2019-04-27T18:10:25.830Z,54.90
2019-04-27T18:12:28.547Z,54.91
2019-04-27T18:14:32.774Z,55.19
2019-04-27T18:16:34.277Z,54.86
2019-04-27T18:18:34.032Z,54.99
2019-04-27T18:20:35.652Z,55.17
2019-04-27T18:22:39.609Z,54.75
2019-04-27T18:24:41.530Z,54.83
2019-04-27T18:26:49.303Z,54.94
2019-04-27T18:28:45.807Z,54.83
2019-04-27T18:30:57.115Z,54.32
2019-04-27T18:33:01.996Z,55.09
2019-04-27T18:35:00.424Z,55.30
2019-04-27T18:37:04.295Z,55.18
2019-04-27T18:39:05.513Z,55.35
2019-04-27T18:41:08.026Z,55.45
2019-04-27T18:43:12.169Z,55.63
2019-04-27T18:45:09.271Z,55.71
2019-04-27T18:47:10.893Z,55.17
2019-04-27T18:49:15.436Z,54.65
2019-04-27T18:51:25.083Z,55.31
2019-04-27T18:53:28.712Z,55.51
2019-04-27T18:55:28.963Z,55.53
2019-04-27T18:57:30.103Z,55.29
2019-04-27T18:59:31.717Z,55.38
2019-04-27T19:01:33.351Z,54.98
2019-04-27T19:03:34.945Z,54.87
2019-04-27T19:05:40.114Z,55.21
2019-04-27T19:07:38.348Z,55.52
2019-04-27T19:09:39.904Z,55.37
2019-04-27T19:11:53.400Z,55.07
2019-04-27T19:13:43.196Z,55.43
2019-04-27T19:15:44.801Z,55.01
2019-04-27T19:17:46.429Z,55.66
2019-04-27T19:19:48.038Z,55.45
2019-04-27T19:21:49.654Z,55.36
2019-04-27T19:23:51.285Z,55.44
2019-04-27T19:25:58.424Z,55.42
2019-04-27T19:28:12.941Z,55.89
2019-04-27T19:30:20.289Z,55.02
2019-04-27T19:32:21.912Z,55.37
2019-04-27T19:34:23.547Z,54.78
2019-04-27T19:36:25.161Z,55.04
2019-04-27T19:38:26.802Z,54.71
2019-04-27T19:40:29.034Z,54.26
2019-04-27T19:42:30.039Z,55.04
2019-04-27T19:44:31.671Z,54.82
2019-04-27T19:46:33.263Z,55.01
2019-04-27T19:48:34.875Z,54.99
2019-04-27T19:50:36.488Z,54.70
2019-04-27T19:52:38.880Z,54.82
2019-04-27T19:54:39.930Z,55.15
2019-04-27T19:56:41.433Z,54.47
2019-04-27T19:58:43.744Z,55.36
2019-04-27T20:00:45.356Z,55.21
2019-04-27T20:02:47.948Z,55.44
2019-04-27T20:04:50.040Z,55.06
2019-04-27T20:06:50.272Z,55.56
2019-04-27T20:08:55.420Z,55.17
2019-04-27T20:10:57.023Z,55.08
2019-04-27T20:12:58.620Z,55.06
2019-04-27T20:15:02.080Z,55.12
2019-04-27T20:17:01.937Z,55.35
2019-04-27T20:19:03.532Z,55.63
2019-04-27T20:21:05.125Z,55.30
2019-04-27T20:23:06.743Z,55.57
2019-04-27T20:25:08.340Z,55.22
2019-04-27T20:27:10.931Z,55.11
2019-04-27T20:29:11.898Z,54.73
2019-04-27T20:31:13.340Z,55.06
2019-04-27T20:33:14.999Z,55.37
2019-04-27T20:35:16.589Z,55.76
2019-04-27T20:37:18.181Z,55.59
2019-04-27T20:39:19.810Z,55.36
2019-04-27T20:41:21.872Z,54.95
2019-04-27T20:43:24.711Z,55.27
2019-04-27T20:45:24.761Z,55.45
2019-04-27T20:47:26.366Z,54.78
2019-04-27T20:49:28.021Z,54.89
2019-04-27T20:51:35.299Z,54.01
2019-04-27T20:53:42.455Z,55.13
2019-04-27T20:55:44.074Z,55.71
2019-04-27T20:57:58.392Z,55.86
2019-04-27T20:59:47.372Z,49.75
